sensor_id;sensor_type;location;lat;lon;timestamp;P1;durP1;ratioP1;P2;durP2;ratioP2
71902;SDS011;59778;50.310;18.780;2024-02-15T00:11:24;23.40;;;8.50;;
71902;SDS011;59778;50.310;18.780;2024-02-15T00:26:45;23.47;;;7.33;;
71902;SDS011;59778;50.310;18.780;2024-02-15T00:42:06;23.83;;;9.43;;
71902;SDS011;59778;50.310;18.780;2024-02-15T00:57:29;22.93;;;9.57;;
71902;SDS011;59778;50.310;18.780;2024-02-15T01:12:50;32.83;;;9.60;;
71902;SDS011;59778;50.310;18.780;2024-02-15T01:28:11;19.73;;;8.10;;
71902;SDS011;59778;50.310;18.780;2024-02-15T01:43:32;17.27;;;7.40;;
71902;SDS011;59778;50.310;18.780;2024-02-15T01:58:53;24.63;;;8.17;;
71902;SDS011;59778;50.310;18.780;2024-02-15T02:14:15;20.93;;;8.33;;
71902;SDS011;59778;50.310;18.780;2024-02-15T02:29:36;20.70;;;9.73;;
71902;SDS011;59778;50.310;18.780;2024-02-15T02:45:04;25.97;;;10.10;;
71902;SDS011;59778;50.310;18.780;2024-02-15T03:00:25;24.50;;;10.00;;
71902;SDS011;59778;50.310;18.780;2024-02-15T03:15:48;25.13;;;10.07;;
71902;SDS011;59778;50.310;18.780;2024-02-15T03:31:09;17.27;;;7.97;;
71902;SDS011;59778;50.310;18.780;2024-02-15T03:46:30;18.73;;;8.60;;
71902;SDS011;59778;50.310;18.780;2024-02-15T04:01:51;27.10;;;8.40;;
71902;SDS011;59778;50.310;18.780;2024-02-15T04:17:12;17.43;;;7.30;;
71902;SDS011;59778;50.310;18.780;2024-02-15T04:32:37;28.20;;;9.87;;
71902;SDS011;59778;50.310;18.780;2024-02-15T04:47:58;19.83;;;7.47;;
71902;SDS011;59778;50.310;18.780;2024-02-15T05:03:22;22.17;;;8.17;;
71902;SDS011;59778;50.310;18.780;2024-02-15T05:18:43;26.30;;;9.67;;
71902;SDS011;59778;50.310;18.780;2024-02-15T05:34:05;21.30;;;8.80;;
71902;SDS011;59778;50.310;18.780;2024-02-15T05:49:28;22.83;;;9.43;;
71902;SDS011;59778;50.310;18.780;2024-02-15T06:04:49;21.50;;;9.37;;
71902;SDS011;59778;50.310;18.780;2024-02-15T06:20:15;31.93;;;11.80;;
71902;SDS011;59778;50.310;18.780;2024-02-15T06:35:38;35.43;;;14.13;;
71902;SDS011;59778;50.310;18.780;2024-02-15T06:51:18;27.23;;;11.20;;
71902;SDS011;59778;50.310;18.780;2024-02-15T07:06:39;24.93;;;9.20;;
71902;SDS011;59778;50.310;18.780;2024-02-15T07:22:01;26.07;;;10.73;;
71902;SDS011;59778;50.310;18.780;2024-02-15T07:37:22;23.63;;;9.03;;
71902;SDS011;59778;50.310;18.780;2024-02-15T07:52:47;15.77;;;6.83;;
71902;SDS011;59778;50.310;18.780;2024-02-15T08:08:08;13.17;;;6.10;;
71902;SDS011;59778;50.310;18.780;2024-02-15T08:23:30;16.53;;;5.80;;
71902;SDS011;59778;50.310;18.780;2024-02-15T08:38:51;14.70;;;5.13;;
71902;SDS011;59778;50.310;18.780;2024-02-15T08:54:12;10.27;;;4.50;;
71902;SDS011;59778;50.310;18.780;2024-02-15T09:09:33;10.80;;;3.90;;
71902;SDS011;59778;50.310;18.780;2024-02-15T09:24:54;10.40;;;4.80;;
71902;SDS011;59778;50.310;18.780;2024-02-15T09:40:17;11.20;;;4.60;;
71902;SDS011;59778;50.310;18.780;2024-02-15T09:55:41;13.90;;;6.70;;
71902;SDS011;59778;50.310;18.780;2024-02-15T10:11:09;10.43;;;3.93;;
71902;SDS011;59778;50.310;18.780;2024-02-15T10:26:30;11.83;;;3.90;;
71902;SDS011;59778;50.310;18.780;2024-02-15T10:41:53;11.43;;;4.60;;
71902;SDS011;59778;50.310;18.780;2024-02-15T10:57:15;9.90;;;4.00;;
71902;SDS011;59778;50.310;18.780;2024-02-15T11:12:42;10.07;;;3.80;;
71902;SDS011;59778;50.310;18.780;2024-02-15T11:59:06;8.47;;;2.90;;
71902;SDS011;59778;50.310;18.780;2024-02-15T12:14:27;8.73;;;3.10;;
71902;SDS011;59778;50.310;18.780;2024-02-15T12:30:07;9.73;;;3.43;;
71902;SDS011;59778;50.310;18.780;2024-02-15T12:45:35;9.03;;;3.77;;
71902;SDS011;59778;50.310;18.780;2024-02-15T13:00:57;9.27;;;3.77;;
71902;SDS011;59778;50.310;18.780;2024-02-15T13:16:19;12.00;;;4.40;;
71902;SDS011;59778;50.310;18.780;2024-02-15T13:31:40;12.70;;;4.07;;
71902;SDS011;59778;50.310;18.780;2024-02-15T13:47:03;13.57;;;3.93;;
71902;SDS011;59778;50.310;18.780;2024-02-15T14:02:26;10.77;;;3.73;;
71902;SDS011;59778;50.310;18.780;2024-02-15T14:17:47;9.93;;;4.50;;
71902;SDS011;59778;50.310;18.780;2024-02-15T14:33:08;9.83;;;3.87;;
71902;SDS011;59778;50.310;18.780;2024-02-15T14:48:32;11.47;;;4.50;;
71902;SDS011;59778;50.310;18.780;2024-02-15T15:03:56;8.47;;;3.60;;
71902;SDS011;59778;50.310;18.780;2024-02-15T15:19:18;9.37;;;2.60;;
71902;SDS011;59778;50.310;18.780;2024-02-15T15:34:39;12.37;;;5.37;;
71902;SDS011;59778;50.310;18.780;2024-02-15T15:50:01;9.63;;;3.07;;
71902;SDS011;59778;50.310;18.780;2024-02-15T16:05:22;11.73;;;4.13;;
71902;SDS011;59778;50.310;18.780;2024-02-15T16:20:43;10.80;;;4.53;;
71902;SDS011;59778;50.310;18.780;2024-02-15T16:36:06;18.37;;;6.97;;
71902;SDS011;59778;50.310;18.780;2024-02-15T16:51:27;24.50;;;10.60;;
71902;SDS011;59778;50.310;18.780;2024-02-15T17:06:50;25.13;;;11.07;;
71902;SDS011;59778;50.310;18.780;2024-02-15T17:22:12;24.60;;;10.83;;
71902;SDS011;59778;50.310;18.780;2024-02-15T17:37:34;41.50;;;13.23;;
71902;SDS011;59778;50.310;18.780;2024-02-15T17:52:55;37.87;;;13.80;;
71902;SDS011;59778;50.310;18.780;2024-02-15T18:08:16;93.10;;;34.10;;
71902;SDS011;59778;50.310;18.780;2024-02-15T18:23:38;73.60;;;21.70;;
71902;SDS011;59778;50.310;18.780;2024-02-15T18:39:02;41.43;;;16.50;;
71902;SDS011;59778;50.310;18.780;2024-02-15T18:54:23;54.13;;;17.20;;
71902;SDS011;59778;50.310;18.780;2024-02-15T19:09:45;58.53;;;19.33;;
71902;SDS011;59778;50.310;18.780;2024-02-15T19:25:06;71.13;;;27.43;;
71902;SDS011;59778;50.310;18.780;2024-02-15T19:40:27;73.30;;;26.07;;
71902;SDS011;59778;50.310;18.780;2024-02-15T19:55:49;95.27;;;33.13;;
71902;SDS011;59778;50.310;18.780;2024-02-15T20:11:11;110.37;;;42.43;;
71902;SDS011;59778;50.310;18.780;2024-02-15T20:26:33;101.53;;;42.83;;
71902;SDS011;59778;50.310;18.780;2024-02-15T20:41:54;93.67;;;39.23;;
71902;SDS011;59778;50.310;18.780;2024-02-15T20:57:15;78.43;;;31.10;;
71902;SDS011;59778;50.310;18.780;2024-02-15T21:12:38;63.33;;;25.57;;
71902;SDS011;59778;50.310;18.780;2024-02-15T21:27:59;68.47;;;25.73;;
71902;SDS011;59778;50.310;18.780;2024-02-15T21:43:20;57.77;;;24.50;;
71902;SDS011;59778;50.310;18.780;2024-02-15T21:58:41;63.57;;;23.77;;
71902;SDS011;59778;50.310;18.780;2024-02-15T22:14:02;54.63;;;22.43;;
71902;SDS011;59778;50.310;18.780;2024-02-15T22:29:24;46.13;;;21.77;;
71902;SDS011;59778;50.310;18.780;2024-02-15T22:44:48;45.27;;;19.67;;
71902;SDS011;59778;50.310;18.780;2024-02-15T23:00:09;55.23;;;21.53;;
71902;SDS011;59778;50.310;18.780;2024-02-15T23:15:34;51.00;;;21.40;;
71902;SDS011;59778;50.310;18.780;2024-02-15T23:30:55;62.90;;;24.30;;
71902;SDS011;59778;50.310;18.780;2024-02-15T23:46:16;52.67;;;20.83;;
